Cedar Point, North Carolina
Current Conditions -  °F | °C
As of 6:57 AM on Monday 22 Dec 2014 (Local Time) from KNJM Reporting Station
Haze Haze  
Wind Chill: 10°   Ceiling: 400
Heat Index: 10°   Visibility: 5mi
Dew Point:   Wind: 12mph
Humidity: 96%   Direction: 30°NNE
Pressure: 30.05"   Gusts: NA
Location:  34.7017°N, 77.1399°W
Report Text: KNJM 221157Z AUTO 03010KT 5SM BR OVC004 10/09 A3005 RMK AO2 RAE11 SLP181 P0000 60002 70012 T01000094 10100 20072 58001
Loading
Personal Weather Stations






























Interactive Weather Map New forecast layout! Learn more

10-Day Weather Forecast

Advertisements
Track Severe Weather on mobile